Time;durP1;ratioP1;P1;durP2;ratioP2;P2;SDS_P1;SDS_P2;PMS_P1;PMS_P2;Temp;Humidity;BMP_temperature;BMP_pressure;BME280_temperature;BME280_humidity;BME280_pressure;Samples;Min_cycle;Max_cycle;Signal;HPM_P1;HPM_P2
2022/03/18 00:00:36;;;;;;;32.45;15.43;;;;;;;-4.22;47.16;103691.20;1773268;80;25936;-58
2022/03/18 00:03:05;;;;;;;53.75;17.55;;;;;;;-4.28;47.20;103696.77;1773059;80;26022;-57
2022/03/18 00:05:32;;;;;;;46.85;17.05;;;;;;;-4.28;47.31;103700.72;1772779;80;25702;-58
2022/03/18 00:07:59;;;;;;;43.25;16.00;;;;;;;-4.33;46.95;103704.09;1773109;80;25749;-58
2022/03/18 00:10:26;;;;;;;34.23;15.88;;;;;;;-4.39;47.15;103704.84;1772968;80;25742;-58
2022/03/18 00:12:54;;;;;;;33.83;16.27;;;;;;;-4.41;47.21;103706.14;1773001;80;26350;-58
2022/03/18 00:15:23;;;;;;;36.40;16.57;;;;;;;-4.45;47.03;103709.58;1773255;80;27411;-58
2022/03/18 00:17:51;;;;;;;37.38;16.55;;;;;;;-4.45;47.11;103706.95;1773006;80;25701;-58
2022/03/18 00:20:19;;;;;;;29.35;16.02;;;;;;;-4.45;47.27;103716.14;1773115;80;25770;-59
2022/03/18 00:22:47;;;;;;;37.05;17.27;;;;;;;-4.45;47.16;103713.52;1773151;80;25842;-59
2022/03/18 00:25:17;;;;;;;36.55;16.35;;;;;;;-4.45;47.11;103716.14;1758373;80;25731;-59
2022/03/18 00:27:46;;;;;;;34.70;15.78;;;;;;;-4.45;47.25;103714.83;1744803;82;27414;-58
2022/03/18 00:30:16;;;;;;;30.55;14.85;;;;;;;-4.45;47.28;103718.77;1743621;81;25446;-58
2022/03/18 00:32:45;;;;;;;31.52;15.63;;;;;;;-4.47;47.39;103720.88;1744113;81;25712;-58
2022/03/18 00:35:12;;;;;;;33.42;14.65;;;;;;;-4.50;47.40;103717.77;1743785;82;26406;-58
2022/03/18 00:37:40;;;;;;;31.52;15.23;;;;;;;-4.49;47.76;103716.05;1744054;82;25711;-57
2022/03/18 00:40:09;;;;;;;38.38;15.28;;;;;;;-4.50;47.55;103719.52;1744081;82;27524;-58
2022/03/18 00:42:37;;;;;;;33.67;15.03;;;;;;;-4.54;47.52;103720.30;1744067;82;25870;-58
2022/03/18 00:45:06;;;;;;;39.40;15.35;;;;;;;-4.57;47.46;103717.17;1743970;82;25751;-58
2022/03/18 00:53:04;;;;;;;33.45;16.32;;;;;;;-4.64;47.95;103710.02;1744175;82;27663;-59
2022/03/18 00:55:31;;;;;;;35.08;17.05;;;;;;;-4.63;47.58;103718.36;1743767;82;25716;-58
2022/03/18 00:57:59;;;;;;;35.55;17.73;;;;;;;-4.59;47.80;103719.78;1758074;80;25712;-58
2022/03/18 01:00:26;;;;;;;36.68;18.55;;;;;;;-4.57;47.75;103721.99;1773038;80;25842;-58
2022/03/18 01:02:52;;;;;;;35.20;15.10;;;;;;;-4.58;47.68;103714.09;1772996;80;25790;-58
2022/03/18 01:05:19;;;;;;;39.73;15.10;;;;;;;-4.60;47.57;103715.78;1773095;80;27454;-58
2022/03/18 01:07:46;;;;;;;25.92;13.68;;;;;;;-4.65;47.82;103720.94;1773118;80;25680;-58
2022/03/18 01:10:13;;;;;;;44.40;15.40;;;;;;;-4.65;48.06;103720.06;1755295;80;25815;-59
2022/03/18 01:12:39;;;;;;;29.32;14.23;;;;;;;-4.62;48.29;103721.45;1745554;82;25771;-58
2022/03/18 01:15:08;;;;;;;27.85;13.32;;;;;;;-4.62;48.12;103728.90;1745380;82;25803;-57
2022/03/18 01:17:35;;;;;;;34.13;14.10;;;;;;;-4.63;47.98;103723.62;1744851;82;27470;-58
2022/03/18 01:20:05;;;;;;;29.40;12.95;;;;;;;-4.62;47.97;103728.90;1745675;82;25649;-58
2022/03/18 01:22:32;;;;;;;35.75;15.50;;;;;;;-4.62;47.79;103730.21;1745357;82;25718;-57
2022/03/18 01:24:59;;;;;;;32.23;14.28;;;;;;;-4.62;47.83;103730.21;1754492;80;25780;-57
2022/03/18 01:27:25;;;;;;;29.48;14.73;;;;;;;-4.58;47.93;103726.81;1767770;80;26027;-58
2022/03/18 01:29:52;;;;;;;26.37;12.23;;;;;;;-4.63;47.45;103731.06;1767255;80;27479;-58
2022/03/18 01:32:19;;;;;;;27.32;12.47;;;;;;;-4.72;47.58;103730.44;1767482;80;25831;-58
2022/03/18 01:34:46;;;;;;;36.08;12.50;;;;;;;-4.84;47.24;103735.84;1767454;81;25666;-58
2022/03/18 01:37:13;;;;;;;32.20;11.90;;;;;;;-4.98;47.31;103731.13;1767698;81;25695;-58
2022/03/18 01:39:39;;;;;;;27.90;13.38;;;;;;;-5.11;47.44;103727.31;1767771;81;25654;-58
2022/03/18 01:42:07;;;;;;;27.62;13.53;;;;;;;-5.23;47.81;103730.94;1767523;81;29635;-58
2022/03/18 01:44:42;;;;;;;34.53;14.00;;;;;;;-5.30;47.97;103731.63;1767887;81;25422;-59
2022/03/18 01:47:11;;;;;;;28.50;12.58;;;;;;;-5.31;47.87;103732.48;1767701;80;25663;-58
2022/03/18 01:49:38;;;;;;;34.35;12.60;;;;;;;-5.29;47.55;103736.95;1767352;81;25585;-58
2022/03/18 01:52:08;;;;;;;28.50;12.35;;;;;;;-5.27;47.84;103732.59;1767833;81;25711;-58
2022/03/18 01:54:44;;;;;;;28.73;11.70;;;;;;;-5.30;48.21;103732.95;1767238;81;27572;-57
2022/03/18 01:57:22;;;;;;;25.57;13.48;;;;;;;-5.40;48.22;103746.27;1757291;81;25680;-58
2022/03/18 01:59:52;;;;;;;25.43;12.78;;;;;;;-5.57;48.52;103751.05;1736908;82;25806;-58
2022/03/18 02:02:20;;;;;;;26.70;13.30;;;;;;;-5.70;48.64;103748.52;1737191;82;26296;-58
2022/03/18 02:04:48;;;;;;;36.65;14.63;;;;;;;-5.74;48.72;103749.30;1737361;81;25703;-58
2022/03/18 02:07:16;;;;;;;31.05;12.75;;;;;;;-5.70;48.63;103745.90;1737163;82;27476;-58
2022/03/18 02:09:44;;;;;;;32.33;13.93;;;;;;;-5.65;48.98;103748.24;1737200;82;25790;-59
2022/03/18 02:12:12;;;;;;;26.00;13.08;;;;;;;-5.60;48.79;103752.30;1737363;81;25750;-59
2022/03/18 02:14:46;;;;;;;33.53;13.95;;;;;;;-5.60;48.91;103748.37;1737332;82;25949;-58
2022/03/18 02:17:16;;;;;;;26.25;12.82;;;;;;;-5.59;48.83;103755.36;1737236;82;25505;-59
2022/03/18 02:19:45;;;;;;;28.27;13.48;;;;;;;-5.62;49.14;103747.43;1736700;82;27474;-59
2022/03/18 02:22:22;;;;;;;38.55;14.33;;;;;;;-5.68;48.98;103757.33;1737466;81;25476;-59
2022/03/18 02:24:52;;;;;;;27.77;13.68;;;;;;;-5.68;49.30;103760.82;1746256;80;25687;-59
2022/03/18 02:27:19;;;;;;;29.87;13.83;;;;;;;-5.66;48.73;103754.33;1760221;80;25757;-59
2022/03/18 02:29:47;;;;;;;29.25;15.08;;;;;;;-5.66;49.47;103762.20;1757419;81;25794;-58
2022/03/18 02:32:14;;;;;;;28.00;14.18;;;;;;;-5.67;49.46;103769.16;1757760;81;28425;-58
2022/03/18 02:34:41;;;;;;;24.75;12.53;;;;;;;-5.61;48.87;103765.82;1757193;81;25439;-59
2022/03/18 02:37:10;;;;;;;32.50;16.05;;;;;;;-5.57;48.97;103762.86;1757475;81;26403;-59
2022/03/18 02:39:37;;;;;;;37.65;16.35;;;;;;;-5.54;48.90;103764.27;1757418;81;25799;-59
2022/03/18 02:42:05;;;;;;;35.65;14.98;;;;;;;-5.53;49.02;103760.80;1757385;81;25790;-58
2022/03/18 02:44:33;;;;;;;30.50;14.47;;;;;;;-5.48;48.68;103765.73;1757336;81;27511;-58
2022/03/18 02:47:00;;;;;;;34.50;14.98;;;;;;;-5.44;49.03;103768.00;1757631;81;25630;-58
2022/03/18 02:49:27;;;;;;;41.13;17.32;;;;;;;-5.41;48.91;103766.34;1757343;81;25928;-58
2022/03/18 02:51:54;;;;;;;38.95;15.58;;;;;;;-5.42;48.48;103767.63;1757501;81;25608;-58
2022/03/18 02:54:21;;;;;;;32.95;15.32;;;;;;;-5.39;48.96;103774.28;1757536;81;25719;-58
2022/03/18 02:56:48;;;;;;;27.80;14.65;;;;;;;-5.36;48.82;103775.66;1757220;81;27494;-59
2022/03/18 02:59:15;;;;;;;35.13;15.80;;;;;;;-5.36;49.27;103770.00;1756322;81;25810;-58
2022/03/18 03:01:42;;;;;;;34.00;15.95;;;;;;;-5.42;49.32;103772.44;1757359;81;25813;-59
2022/03/18 03:04:08;;;;;;;30.17;15.53;;;;;;;-5.44;49.36;103768.00;1757520;81;25680;-58
2022/03/18 03:09:20;;;;;;;22.98;12.75;;;;;;;-5.62;49.49;103782.41;1757285;81;27479;-58
2022/03/18 03:11:47;;;;;;;32.40;13.75;;;;;;;-5.77;49.62;103785.48;1757703;81;25525;-58
2022/03/18 03:14:15;;;;;;;25.17;12.28;;;;;;;-5.83;49.52;103792.74;1757635;81;25762;-58
2022/03/18 03:16:42;;;;;;;23.45;12.65;;;;;;;-5.85;49.50;103794.86;1757145;81;25632;-58
2022/03/18 03:19:09;;;;;;;28.80;12.88;;;;;;;-5.78;49.46;103801.18;1757726;81;25708;-59
2022/03/18 03:21:37;;;;;;;29.98;13.95;;;;;;;-5.67;49.38;103805.01;1757297;81;27483;-59
2022/03/18 03:24:06;;;;;;;31.00;13.98;;;;;;;-5.61;49.69;103810.85;1755739;81;26390;-59
2022/03/18 03:26:33;;;;;;;27.52;12.50;;;;;;;-5.71;49.67;103813.62;1742862;82;25698;-58
2022/03/18 03:29:00;;;;;;;31.10;12.58;;;;;;;-5.82;49.53;103812.01;1735830;82;25887;-59
2022/03/18 03:31:28;;;;;;;30.00;13.18;;;;;;;-5.88;49.61;103814.46;1735051;82;25661;-58
2022/03/18 03:33:54;;;;;;;30.48;12.10;;;;;;;-5.94;50.01;103812.55;1735545;82;27655;-59
2022/03/18 03:36:23;;;;;;;26.23;13.53;;;;;;;-5.99;49.76;103816.78;1735726;82;25762;-59
2022/03/18 03:38:50;;;;;;;22.82;11.80;;;;;;;-5.99;49.71;103819.40;1735290;82;25711;-59
2022/03/18 03:41:20;;;;;;;30.90;13.25;;;;;;;-5.98;49.86;103815.91;1735824;82;25774;-58
2022/03/18 03:43:45;;;;;;;27.40;12.40;;;;;;;-5.95;49.63;103821.66;1735450;82;25751;-59
2022/03/18 03:46:13;;;;;;;25.12;11.83;;;;;;;-5.87;49.32;103828.05;1735814;82;27451;-59
2022/03/18 03:48:39;;;;;;;27.40;12.13;;;;;;;-5.78;49.37;103829.59;1736129;82;25787;-59
2022/03/18 03:51:07;;;;;;;33.60;13.38;;;;;;;-5.64;49.27;103830.42;1735802;82;25451;-59
2022/03/18 03:53:35;;;;;;;29.70;13.78;;;;;;;-5.56;49.16;103827.16;1735855;82;25676;-59
2022/03/18 03:56:04;;;;;;;26.40;13.55;;;;;;;-5.46;49.00;103829.63;1735042;82;25459;-58
2022/03/18 03:58:31;;;;;;;25.90;12.75;;;;;;;-5.40;48.97;103828.48;1738381;82;27501;-59
2022/03/18 04:00:58;;;;;;;26.75;12.45;;;;;;;-5.33;48.69;103827.36;1742420;81;26013;-60
2022/03/18 04:03:24;;;;;;;30.57;13.48;;;;;;;-5.36;48.66;103821.58;1741277;81;25739;-59
2022/03/18 04:05:51;;;;;;;24.25;13.40;;;;;;;-5.45;48.66;103830.50;1742265;82;26182;-59
2022/03/18 04:08:18;;;;;;;35.30;13.98;;;;;;;-5.58;48.63;103828.88;1741830;82;25799;-59
2022/03/18 04:10:45;;;;;;;25.02;13.03;;;;;;;-5.60;48.84;103836.23;1741277;82;28167;-59
2022/03/18 04:13:12;;;;;;;30.65;12.93;;;;;;;-5.53;49.13;103835.56;1739826;81;26481;-59
2022/03/18 04:15:38;;;;;;;30.32;14.18;;;;;;;-5.44;48.95;103841.06;1741745;82;25717;-59
2022/03/18 04:18:05;;;;;;;25.77;12.73;;;;;;;-5.37;48.98;103844.72;1742274;82;26206;-59
2022/03/18 04:20:33;;;;;;;32.38;14.00;;;;;;;-5.26;48.78;103845.92;1741349;82;25739;-59
2022/03/18 04:23:01;;;;;;;31.68;14.20;;;;;;;-5.23;48.92;103851.67;1741470;82;28192;-59
2022/03/18 04:25:30;;;;;;;34.33;13.98;;;;;;;-5.32;48.62;103850.10;1759801;80;25663;-59
2022/03/18 04:27:59;;;;;;;33.40;14.15;;;;;;;-5.35;48.49;103842.64;1772792;79;25579;-60
2022/03/18 04:30:26;;;;;;;32.03;12.80;;;;;;;-5.31;48.59;103842.70;1772956;80;25754;-59
2022/03/18 04:32:52;;;;;;;35.08;13.55;;;;;;;-5.29;48.66;103851.10;1773142;80;25662;-59
2022/03/18 04:35:19;;;;;;;28.47;12.50;;;;;;;-5.33;48.48;103849.23;1753992;80;27482;-59
2022/03/18 04:37:46;;;;;;;30.95;13.48;;;;;;;-5.37;48.45;103854.81;1747052;81;25855;-59
2022/03/18 04:40:14;;;;;;;27.40;13.50;;;;;;;-5.36;48.63;103858.31;1747458;81;25833;-59
2022/03/18 04:42:44;;;;;;;26.73;12.68;;;;;;;-5.36;48.77;103863.16;1747071;82;25827;-59
2022/03/18 04:45:13;;;;;;;30.82;13.28;;;;;;;-5.30;48.77;103862.44;1747637;81;25803;-59
2022/03/18 04:47:40;;;;;;;39.13;13.22;;;;;;;-5.26;48.71;103869.54;1747300;80;28325;-59
2022/03/18 04:50:09;;;;;;;47.38;16.73;;;;;;;-5.17;48.81;103866.30;1747124;81;25771;-58
2022/03/18 04:52:36;;;;;;;31.35;17.12;;;;;;;-5.10;48.63;103868.23;1746850;81;25843;-59
2022/03/18 04:55:05;;;;;;;31.10;16.23;;;;;;;-5.06;48.53;103871.38;1746639;82;25455;-59
2022/03/18 04:57:32;;;;;;;30.95;14.20;;;;;;;-4.98;48.62;103866.78;1732525;82;26528;-59
2022/03/18 05:00:00;;;;;;;42.95;18.15;;;;;;;-4.88;48.49;103870.09;1711975;83;28244;-59
2022/03/18 05:02:28;;;;;;;47.73;18.90;;;;;;;-4.82;48.31;103871.98;1705266;84;25845;-59
2022/03/18 05:04:55;;;;;;;95.95;40.33;;;;;;;-4.81;48.14;103868.52;1681799;85;25755;-59
2022/03/18 05:07:24;;;;;;;74.07;31.75;;;;;;;-4.76;48.38;103872.17;1745030;82;26168;-58
2022/03/18 05:09:50;;;;;;;50.70;18.23;;;;;;;-4.69;48.37;103874.09;1744181;82;25720;-58
2022/03/18 05:12:18;;;;;;;33.45;15.43;;;;;;;-4.76;48.19;103876.11;1745510;82;27560;-58
2022/03/18 05:14:44;;;;;;;35.52;15.40;;;;;;;-4.88;48.29;103866.16;1745067;82;25778;-59
2022/03/18 05:17:11;;;;;;;30.97;15.38;;;;;;;-4.92;48.65;103878.75;1745685;82;26306;-58
2022/03/18 05:19:39;;;;;;;46.45;16.50;;;;;;;-5.10;48.81;103880.45;1745019;82;25516;-58
2022/03/18 05:22:07;;;;;;;38.78;15.85;;;;;;;-5.14;48.95;103886.04;1745450;82;25738;-59
2022/03/18 05:24:36;;;;;;;36.95;14.13;;;;;;;-5.13;49.01;103887.82;1751210;80;27532;-58
2022/03/18 05:27:04;;;;;;;33.80;14.78;;;;;;;-5.11;48.94;103883.52;1768049;80;25862;-58
2022/03/18 05:29:32;;;;;;;33.50;12.88;;;;;;;-5.03;49.02;103888.55;1763011;81;25801;-58
2022/03/18 05:32:00;;;;;;;28.35;12.95;;;;;;;-4.95;48.73;103887.85;1762641;81;25489;-57
2022/03/18 05:34:27;;;;;;;47.90;15.30;;;;;;;-4.82;48.65;103893.00;1762687;81;25813;-58
2022/03/18 05:36:55;;;;;;;28.12;13.28;;;;;;;-4.72;48.50;103890.67;1762491;81;28315;-58
2022/03/18 05:39:22;;;;;;;37.00;13.80;;;;;;;-4.59;48.22;103892.28;1762589;81;25734;-58
2022/03/18 05:41:49;;;;;;;37.40;15.88;;;;;;;-4.51;48.17;103888.55;1762615;81;25708;-58
2022/03/18 05:44:18;;;;;;;64.25;23.10;;;;;;;-4.44;48.07;103895.72;1761947;81;26362;-58
2022/03/18 05:46:45;;;;;;;52.08;17.15;;;;;;;-4.37;47.97;103897.64;1762532;81;26095;-59
2022/03/18 05:49:12;;;;;;;48.20;16.60;;;;;;;-4.32;47.79;103906.95;1763044;81;27441;-58
2022/03/18 05:51:40;;;;;;;32.75;14.28;;;;;;;-4.25;47.83;103903.61;1762614;80;25698;-58
2022/03/18 05:54:07;;;;;;;43.02;15.32;;;;;;;-4.16;47.66;103908.22;1739221;81;25845;-58
2022/03/18 05:56:53;;;;;;;38.98;14.10;;;;;;;-4.16;47.58;103911.72;1762190;81;25691;-58
2022/03/18 05:59:26;;;;;;;40.40;15.53;;;;;;;-4.10;47.55;103908.36;1737074;81;25743;-59
2022/03/18 06:01:56;;;;;;;43.90;14.70;;;;;;;-4.12;47.39;103912.27;1747258;80;27190;-59
2022/03/18 06:04:24;;;;;;;40.08;15.28;;;;;;;-4.15;47.53;103913.95;1747232;82;25817;-62
2022/03/18 06:06:51;;;;;;;32.90;15.45;;;;;;;-4.18;47.38;103915.17;1747283;82;25521;-59
2022/03/18 06:12:07;;;;;;;55.55;16.97;;;;;;;-4.19;47.50;103925.22;1747149;82;25746;-59
2022/03/18 06:14:34;;;;;;;43.70;15.83;;;;;;;-4.11;47.83;103918.00;1709717;82;27539;-58
2022/03/18 06:17:04;;;;;;;28.10;13.55;;;;;;;-3.99;47.74;103916.08;1686832;84;25808;-59
2022/03/18 06:19:32;;;;;;;39.63;17.52;;;;;;;-3.86;47.74;103919.88;1686992;84;25657;-59
2022/03/18 06:22:00;;;;;;;34.83;14.95;;;;;;;-3.75;47.90;103909.58;1688583;83;26120;-59
2022/03/18 06:24:29;;;;;;;29.10;13.43;;;;;;;-3.66;47.78;103917.67;1701397;81;25795;-59
2022/03/18 06:26:57;;;;;;;37.63;15.70;;;;;;;-3.64;47.48;103913.34;1747336;82;27481;-59
2022/03/18 06:29:24;;;;;;;34.98;14.98;;;;;;;-3.64;47.28;103906.77;1744429;80;25838;-58
2022/03/18 06:31:51;;;;;;;26.60;13.60;;;;;;;-3.70;47.26;103914.95;1730092;82;25881;-58
2022/03/18 06:34:20;;;;;;;24.07;12.37;;;;;;;-3.76;47.65;103905.17;1731035;82;26312;-58
2022/03/18 06:36:50;;;;;;;33.63;13.32;;;;;;;-3.80;47.71;103908.61;1730803;82;25947;-58
2022/03/18 06:39:19;;;;;;;29.60;13.58;;;;;;;-3.85;47.94;103905.87;1730706;82;27460;-58
2022/03/18 06:41:46;;;;;;;37.25;14.95;;;;;;;-3.79;47.92;103904.68;1730648;82;25759;-58
2022/03/18 06:44:13;;;;;;;33.28;14.98;;;;;;;-3.69;47.82;103905.79;1730558;82;25807;-58
2022/03/18 06:46:41;;;;;;;32.40;15.48;;;;;;;-3.56;47.77;103900.36;1730603;82;25785;-58
2022/03/18 06:49:09;;;;;;;31.33;13.38;;;;;;;-3.41;47.68;103899.80;1730703;82;25810;-57
2022/03/18 06:51:36;;;;;;;28.75;9.43;;;;;;;-3.28;47.64;103905.29;1730650;82;27536;-58
2022/03/18 06:54:03;;;;;;;24.72;9.38;;;;;;;-3.15;47.34;103898.98;1730384;82;25497;-58
2022/03/18 06:56:30;;;;;;;22.05;10.08;;;;;;;-3.03;46.87;103898.77;1730483;82;26739;-58
2022/03/18 06:58:58;;;;;;;22.50;9.73;;;;;;;-2.92;46.95;103898.55;1744391;82;26460;-58
2022/03/18 07:01:26;;;;;;;25.97;9.38;;;;;;;-2.80;46.84;103912.77;1747033;82;25968;-57
2022/03/18 07:03:53;;;;;;;19.62;9.45;;;;;;;-2.72;46.50;103913.39;1747327;82;27468;-58
2022/03/18 07:06:20;;;;;;;22.45;9.95;;;;;;;-2.61;46.53;103913.56;1746712;81;25918;-59
2022/03/18 07:08:47;;;;;;;24.35;9.48;;;;;;;-2.53;46.66;103917.66;1746028;82;25647;-58
2022/03/18 07:11:15;;;;;;;21.30;9.68;;;;;;;-2.43;46.41;103917.38;1746157;82;25688;-58
2022/03/18 07:13:43;;;;;;;25.68;11.85;;;;;;;-2.37;46.29;103906.92;1747406;81;25815;-58
2022/03/18 07:18:55;;;;;;;20.60;9.85;;;;;;;-2.19;46.05;103903.70;1747120;80;25752;-58
2022/03/18 07:21:22;;;;;;;19.30;10.05;;;;;;;-2.08;45.58;103907.81;1747613;80;25766;-58
2022/03/18 07:23:49;;;;;;;18.17;8.48;;;;;;;-1.99;45.72;103911.03;1746801;82;25783;-58
2022/03/18 07:26:16;;;;;;;20.48;9.43;;;;;;;-1.89;45.67;103909.86;1767210;81;25759;-59
2022/03/18 07:28:43;;;;;;;23.65;10.32;;;;;;;-1.75;45.65;103910.50;1767042;80;27489;-58
2022/03/18 07:31:10;;;;;;;27.13;10.45;;;;;;;-1.65;45.58;103901.81;1762992;80;25463;-58
2022/03/18 07:33:37;;;;;;;17.87;9.23;;;;;;;-1.52;45.34;103896.70;1762804;81;25758;-58
2022/03/18 07:36:05;;;;;;;19.10;9.63;;;;;;;-1.44;45.21;103898.59;1762536;81;25789;-59
2022/03/18 07:38:32;;;;;;;23.22;9.88;;;;;;;-1.32;44.92;103904.86;1736669;80;25844;-58
2022/03/18 07:40:59;;;;;;;20.20;9.50;;;;;;;-1.21;44.77;103897.09;1726172;83;28329;-59
2022/03/18 07:43:25;;;;;;;22.73;9.35;;;;;;;-1.10;44.28;103899.39;1726249;82;25815;-59
2022/03/18 07:45:52;;;;;;;22.52;8.23;;;;;;;-0.98;44.41;103892.92;1725523;83;25813;-59
2022/03/18 07:48:20;;;;;;;15.88;7.37;;;;;;;-0.77;44.37;103891.79;1726524;82;25839;-59
2022/03/18 07:50:48;;;;;;;16.90;7.80;;;;;;;-0.56;43.62;103893.73;1726103;83;25708;-59
2022/03/18 07:53:14;;;;;;;25.45;8.25;;;;;;;-0.36;42.80;103892.15;1726412;83;27463;-59
2022/03/18 07:55:41;;;;;;;17.82;7.58;;;;;;;-0.23;41.84;103890.48;1726114;82;25701;-59
2022/03/18 07:58:08;;;;;;;19.20;8.30;;;;;;;-0.10;42.19;103883.50;1748231;81;25796;-60
2022/03/18 08:00:36;;;;;;;20.85;8.55;;;;;;;0.05;41.50;103879.17;1762577;80;25859;-58
2022/03/18 08:03:03;;;;;;;44.80;7.40;;;;;;;0.22;41.01;103880.59;1762867;81;25763;-58
2022/03/18 08:05:31;;;;;;;16.27;7.03;;;;;;;0.31;40.63;103881.52;1762995;80;27574;-59
2022/03/18 08:07:58;;;;;;;15.10;7.72;;;;;;;0.42;40.31;103878.03;1762628;80;25717;-58
2022/03/18 08:10:25;;;;;;;21.73;8.35;;;;;;;0.54;40.32;103877.22;1762541;81;25525;-59
2022/03/18 08:12:53;;;;;;;17.77;7.67;;;;;;;0.58;40.33;103877.66;1741866;80;25789;-58
2022/03/18 08:15:21;;;;;;;16.93;7.28;;;;;;;0.72;39.99;103881.68;1730809;82;25841;-58
2022/03/18 08:17:54;;;;;;;16.77;7.35;;;;;;;0.87;40.04;103880.39;1730840;82;28473;-59
2022/03/18 08:20:21;;;;;;;16.30;7.75;;;;;;;1.00;40.02;103872.02;1731427;82;26089;-57
2022/03/18 08:22:50;;;;;;;18.55;7.78;;;;;;;1.17;39.48;103877.78;1730604;82;25521;-57
2022/03/18 08:25:19;;;;;;;22.27;6.87;;;;;;;1.33;38.87;103871.63;1748178;80;25776;-58
2022/03/18 08:27:49;;;;;;;30.25;7.70;;;;;;;1.48;38.46;103870.72;1762554;81;25478;-57
2022/03/18 08:30:16;;;;;;;12.50;6.58;;;;;;;1.63;37.38;103870.28;1748102;80;27456;-58
2022/03/18 08:32:43;;;;;;;15.68;7.10;;;;;;;1.72;37.42;103864.96;1744975;81;25827;-58
2022/03/18 08:35:10;;;;;;;15.88;5.75;;;;;;;1.85;36.94;103861.84;1712146;82;26862;-58
2022/03/18 08:37:56;;;;;;;14.07;5.90;;;;;;;1.99;35.96;103856.50;1755164;80;25804;-57
2022/03/18 08:40:28;;;;;;;26.60;6.62;;;;;;;2.11;35.94;103844.95;1767825;81;25487;-58
2022/03/18 08:42:57;;;;;;;16.55;7.92;;;;;;;2.27;36.15;103839.14;1767531;80;27729;-58
2022/03/18 08:45:25;;;;;;;14.15;7.97;;;;;;;2.42;36.29;103843.52;1766694;80;25816;-57
2022/03/18 08:47:53;;;;;;;22.67;8.73;;;;;;;2.61;35.90;103842.50;1767647;81;25722;-57
2022/03/18 08:50:22;;;;;;;18.50;7.60;;;;;;;2.78;35.96;103837.55;1759327;81;26484;-58
2022/03/18 08:52:53;;;;;;;15.53;6.70;;;;;;;2.97;36.12;103839.17;1732615;81;25813;-58
2022/03/18 08:55:21;;;;;;;57.08;8.80;;;;;;;3.23;34.78;103823.91;1742924;81;27470;-58
2022/03/18 08:57:48;;;;;;;20.12;6.28;;;;;;;3.39;33.34;103827.33;1749855;80;25762;-58
2022/03/18 09:00:17;;;;;;;17.23;6.17;;;;;;;3.45;33.15;103822.80;1755115;80;25788;-58
2022/03/18 09:02:46;;;;;;;15.98;6.15;;;;;;;3.57;33.44;103823.59;1765666;81;25792;-59
2022/03/18 09:05:14;;;;;;;15.88;6.78;;;;;;;3.79;33.73;103824.25;1767622;81;25650;-57
2022/03/18 09:07:41;;;;;;;14.73;5.83;;;;;;;4.02;32.30;103813.34;1767093;81;27474;-57
2022/03/18 09:10:12;;;;;;;21.23;5.97;;;;;;;4.15;32.50;103818.06;1767729;81;25518;-58
2022/03/18 09:12:55;;;;;;;14.63;6.70;;;;;;;4.32;31.95;103820.52;1767148;80;25664;-58
2022/03/18 09:15:20;;;;;;;15.55;6.70;;;;;;;4.58;31.09;103815.28;1763663;81;25963;-58
2022/03/18 09:17:47;;;;;;;22.85;7.20;;;;;;;4.78;31.88;103814.11;1767543;81;25732;-57
2022/03/18 09:20:15;;;;;;;16.62;7.53;;;;;;;4.99;31.74;103816.89;1738349;80;27469;-59
2022/03/18 09:22:41;;;;;;;17.92;5.60;;;;;;;5.26;31.31;103814.66;1699169;83;25836;-58
2022/03/18 09:25:09;;;;;;;16.05;5.12;;;;;;;5.56;30.46;103807.03;1751279;81;25718;-58
2022/03/18 09:27:37;;;;;;;9.40;5.47;;;;;;;5.89;30.86;103797.92;1767866;80;25852;-58
2022/03/18 09:30:05;;;;;;;12.98;5.83;;;;;;;6.41;29.14;103813.33;1741294;81;26505;-58
2022/03/18 09:32:32;;;;;;;14.40;5.67;;;;;;;6.94;28.38;103804.11;1735520;80;27587;-58
2022/03/18 09:34:59;;;;;;;9.95;5.25;;;;;;;7.68;27.19;103808.86;1738253;81;25741;-58
2022/03/18 09:37:26;;;;;;;26.87;5.78;;;;;;;8.33;26.19;103812.84;1735094;81;25534;-58
2022/03/18 09:39:53;;;;;;;13.53;5.55;;;;;;;9.03;25.05;103811.55;1736649;81;25972;-58
2022/03/18 09:42:20;;;;;;;12.45;6.25;;;;;;;9.58;23.54;103805.20;1741806;81;25727;-57
2022/03/18 09:44:48;;;;;;;14.20;6.08;;;;;;;9.94;24.05;103806.98;1748146;81;27429;-58
2022/03/18 09:47:16;;;;;;;8.73;5.55;;;;;;;10.34;23.95;103804.58;1748027;81;26119;-59
2022/03/18 09:49:45;;;;;;;25.00;7.00;;;;;;;10.74;23.22;103803.03;1748469;81;25823;-58
2022/03/18 09:52:12;;;;;;;20.77;6.30;;;;;;;11.12;24.39;103803.72;1747961;81;26005;-58
2022/03/18 09:54:39;;;;;;;14.10;6.10;;;;;;;11.63;23.11;103804.20;1740828;81;26126;-59
2022/03/18 09:57:06;;;;;;;12.53;5.35;;;;;;;12.09;21.83;103797.20;1731833;81;27667;-59
2022/03/18 09:59:33;;;;;;;23.65;5.20;;;;;;;12.12;21.51;103801.12;1726397;82;25771;-58
2022/03/18 10:02:28;;;;;;;9.95;5.08;;;;;;;12.34;20.69;103800.98;1744748;81;25467;-58
2022/03/18 10:05:01;;;;;;;13.13;4.80;;;;;;;12.59;21.16;103802.97;1748187;81;25718;-58
2022/03/18 10:07:29;;;;;;;17.95;6.05;;;;;;;12.87;20.17;103805.63;1748322;81;25829;-58
2022/03/18 10:10:16;;;;;;;24.07;6.80;;;;;;;13.05;20.30;103799.78;1748081;81;27122;-58
2022/03/18 10:12:47;;;;;;;13.58;5.55;;;;;;;13.43;18.96;103805.94;1747505;81;25494;-58
2022/03/18 10:15:24;;;;;;;12.58;5.53;;;;;;;13.33;19.86;103805.98;1747384;82;25780;-58
2022/03/18 10:17:55;;;;;;;11.73;5.40;;;;;;;13.83;18.61;103794.81;1748744;81;25760;-58
2022/03/18 10:20:38;;;;;;;13.75;6.53;;;;;;;13.81;19.47;103796.72;1747754;82;25759;-57
2022/03/18 10:23:22;;;;;;;20.75;6.70;;;;;;;14.00;19.41;103799.78;1747781;80;27643;-58
2022/03/18 10:25:58;;;;;;;10.48;5.30;;;;;;;13.45;19.10;103805.39;1732756;82;25525;-57
2022/03/18 10:28:41;;;;;;;12.68;6.30;;;;;;;13.06;19.00;103803.75;1728769;83;25808;-57
2022/03/18 10:31:27;;;;;;;11.12;4.85;;;;;;;12.70;19.05;103810.53;1742711;82;26477;-57
2022/03/18 10:37:04;;;;;;;109.42;11.12;;;;;;;13.02;19.29;103800.82;1744892;82;28143;-57
2022/03/18 10:39:41;;;;;;;16.70;6.17;;;;;;;13.64;18.40;103783.23;1745043;82;25810;-58
2022/03/18 10:42:14;;;;;;;24.00;12.60;;;;;;;13.74;18.53;103801.62;1744633;82;25809;-58
2022/03/18 10:44:51;;;;;;;26.65;9.90;;;;;;;13.95;18.26;103788.34;1745569;82;25944;-58
2022/03/18 10:47:36;;;;;;;13.98;6.87;;;;;;;14.27;18.90;103791.97;1745308;82;25793;-58
2022/03/18 10:50:29;;;;;;;15.13;5.85;;;;;;;14.06;17.92;103790.84;1744956;82;26924;-57
2022/03/18 10:53:04;;;;;;;12.00;5.45;;;;;;;13.28;18.85;103787.79;1745122;82;25882;-58
2022/03/18 10:55:36;;;;;;;21.25;11.57;;;;;;;13.52;18.96;103792.42;1745117;82;25694;-57
2022/03/18 10:58:16;;;;;;;22.45;11.38;;;;;;;12.57;19.03;103791.36;1752117;81;26443;-58
2022/03/18 11:00:46;;;;;;;17.50;6.87;;;;;;;12.96;19.28;103787.14;1710341;83;25870;-57
2022/03/18 11:03:14;;;;;;;15.58;5.45;;;;;;;13.52;18.81;103800.53;1747935;82;27547;-58
2022/03/18 11:05:43;;;;;;;20.77;5.03;;;;;;;13.76;18.93;103790.20;1746144;82;25854;-58
2022/03/18 11:08:13;;;;;;;13.43;5.30;;;;;;;14.53;17.87;103786.89;1746833;82;25509;-58
2022/03/18 11:11:15;;;;;;;15.03;4.85;;;;;;;14.62;19.17;103782.30;1748102;82;25816;-58
2022/03/18 11:14:00;;;;;;;17.25;5.03;;;;;;;15.25;18.11;103775.01;1745690;82;25797;-58
2022/03/18 11:16:29;;;;;;;17.77;5.33;;;;;;;15.42;17.70;103778.02;1746809;82;27458;-58
2022/03/18 11:18:58;;;;;;;18.40;4.62;;;;;;;14.43;18.16;103785.67;1745502;82;25734;-57
2022/03/18 11:21:36;;;;;;;10.05;4.40;;;;;;;13.93;18.29;103785.23;1748486;82;25873;-57
2022/03/18 11:24:15;;;;;;;10.93;3.50;;;;;;;13.59;18.61;103788.43;1747628;80;25793;-59
2022/03/18 11:26:50;;;;;;;7.12;3.95;;;;;;;13.89;18.23;103782.78;1722445;82;25822;-58
2022/03/18 11:29:24;;;;;;;11.05;4.00;;;;;;;13.93;18.25;103781.67;1745547;82;27469;-58
2022/03/18 11:32:14;;;;;;;6.95;3.75;;;;;;;14.01;17.93;103783.47;1744998;82;25727;-59
2022/03/18 11:34:56;;;;;;;17.10;3.87;;;;;;;13.68;18.41;103772.66;1744461;82;25696;-59
2022/03/18 11:37:29;;;;;;;9.95;3.87;;;;;;;13.69;18.46;103765.80;1744667;82;25779;-57
2022/03/18 11:40:27;;;;;;;9.98;3.60;;;;;;;13.32;18.80;103783.95;1744390;82;25730;-57